createdAt,value
2018-10-12T00:03:59.333Z,15.70
2018-10-12T00:09:21.169Z,15.70
2018-10-12T00:14:43.302Z,15.70
2018-10-12T00:20:05.210Z,15.70
2018-10-12T00:25:27.397Z,15.80
2018-10-12T00:30:49.277Z,15.80
2018-10-12T00:36:12.059Z,15.80
2018-10-12T00:41:34.141Z,15.80
2018-10-12T00:46:56.180Z,15.90
2018-10-12T00:52:18.345Z,15.90
2018-10-12T00:57:40.141Z,15.80
2018-10-12T01:03:02.306Z,15.80
2018-10-12T01:08:27.774Z,15.80
2018-10-12T01:13:49.794Z,15.80
2018-10-12T01:19:11.639Z,15.80
2018-10-12T01:24:33.699Z,15.80
2018-10-12T01:29:55.613Z,15.80
2018-10-12T01:35:17.554Z,15.80
2018-10-12T01:40:39.567Z,15.90
2018-10-12T01:46:01.767Z,15.90
2018-10-12T01:51:23.660Z,15.90
2018-10-12T01:56:45.775Z,15.90
2018-10-12T02:02:07.918Z,15.90
2018-10-12T02:07:29.961Z,15.90
2018-10-12T02:12:51.847Z,15.90
2018-10-12T02:18:13.948Z,15.90
2018-10-12T02:23:35.854Z,15.90
2018-10-12T02:28:57.954Z,16.00
2018-10-12T02:34:19.866Z,16.00
2018-10-12T02:39:42.056Z,15.90
2018-10-12T02:45:04.106Z,15.90
2018-10-12T02:50:26.036Z,16.00
2018-10-12T02:55:48.166Z,16.00
2018-10-12T03:01:10.122Z,16.00
2018-10-12T03:06:31.917Z,16.00
2018-10-12T03:11:53.985Z,16.10
2018-10-12T03:17:18.059Z,16.10
2018-10-12T03:22:40.047Z,16.10
2018-10-12T03:28:18.600Z,16.10
2018-10-12T03:33:41.107Z,16.20
2018-10-12T03:39:03.062Z,16.20
2018-10-12T03:44:25.232Z,16.20
2018-10-12T03:49:47.280Z,16.20
2018-10-12T03:55:09.497Z,16.20
2018-10-12T04:00:31.301Z,16.30
2018-10-12T04:05:53.421Z,16.30
2018-10-12T04:11:18.648Z,16.30
2018-10-12T04:16:44.211Z,16.30
2018-10-12T04:22:07.183Z,16.30
2018-10-12T04:27:29.274Z,16.30
2018-10-12T04:32:51.166Z,16.30
2018-10-12T04:38:13.393Z,16.30
2018-10-12T04:43:35.502Z,16.30
2018-10-12T04:48:57.998Z,16.40
2018-10-12T04:54:20.289Z,16.40
2018-10-12T04:59:42.178Z,16.40
2018-10-12T05:05:03.872Z,16.40
2018-10-12T05:10:26.288Z,16.40
2018-10-12T05:15:48.695Z,16.40
2018-10-12T05:21:10.690Z,16.40
2018-10-12T05:26:32.951Z,16.40
2018-10-12T05:31:54.714Z,16.40
2018-10-12T05:37:16.985Z,16.40
2018-10-12T05:42:38.848Z,16.40
2018-10-12T05:48:10.978Z,16.50
2018-10-12T05:53:33.783Z,16.40
2018-10-12T05:58:56.462Z,16.40
2018-10-12T06:04:18.662Z,16.40
2018-10-12T06:09:40.733Z,16.50
2018-10-12T06:15:02.609Z,16.50
2018-10-12T06:20:24.880Z,16.50
2018-10-12T06:25:46.911Z,16.50
2018-10-12T06:31:09.261Z,16.40
2018-10-12T06:36:31.316Z,16.40
2018-10-12T06:41:53.189Z,16.50
2018-10-12T06:47:15.353Z,16.40
2018-10-12T06:52:37.556Z,16.50
2018-10-12T06:57:59.556Z,16.50
2018-10-12T07:03:23.907Z,16.50
2018-10-12T07:08:48.030Z,16.60
2018-10-12T07:14:12.463Z,16.60
2018-10-12T07:19:36.657Z,16.60
2018-10-12T07:25:01.452Z,16.60
2018-10-12T07:30:24.370Z,16.70
2018-10-12T07:35:46.558Z,16.70
2018-10-12T07:41:08.425Z,16.70
2018-10-12T07:46:30.626Z,16.80
2018-10-12T07:51:54.722Z,16.80
2018-10-12T07:57:18.209Z,16.80
2018-10-12T08:02:50.010Z,16.80
2018-10-12T08:08:14.253Z,17.10
2018-10-12T08:13:37.986Z,17.20
2018-10-12T08:19:02.025Z,17.40
2018-10-12T08:24:26.329Z,17.50
2018-10-12T08:29:51.298Z,17.70
2018-10-12T08:35:15.006Z,17.60
2018-10-12T08:40:40.564Z,17.50
2018-10-12T08:46:04.556Z,17.70
2018-10-12T08:51:28.227Z,18.00
2018-10-12T08:56:52.219Z,18.20
2018-10-12T09:02:14.289Z,18.40
2018-10-12T09:07:36.041Z,18.50
2018-10-12T09:12:58.197Z,18.40
2018-10-12T09:18:20.031Z,18.40
2018-10-12T09:23:42.314Z,18.10
2018-10-12T09:29:04.274Z,18.10
2018-10-12T09:34:26.641Z,18.20
2018-10-12T09:39:48.279Z,18.30
2018-10-12T09:45:10.650Z,18.40
2018-10-12T09:50:33.402Z,18.50
2018-10-12T09:55:55.160Z,18.60
2018-10-12T10:01:22.238Z,18.50
2018-10-12T10:06:43.951Z,18.40
2018-10-12T10:12:06.181Z,18.80
2018-10-12T10:17:29.345Z,19.00
2018-10-12T10:22:51.566Z,19.20
2018-10-12T10:28:13.283Z,19.30
2018-10-12T10:33:35.524Z,19.40
2018-10-12T10:38:57.314Z,19.40
2018-10-12T10:44:19.067Z,19.40
2018-10-12T10:49:41.217Z,19.40
2018-10-12T10:55:03.120Z,19.40
2018-10-12T11:00:25.573Z,19.50
2018-10-12T11:05:49.923Z,19.50
2018-10-12T11:11:11.942Z,19.60
2018-10-12T11:16:34.005Z,19.60
2018-10-12T11:21:55.799Z,19.70
2018-10-12T11:27:17.895Z,19.60
2018-10-12T11:32:39.840Z,19.60
2018-10-12T11:38:02.014Z,19.60
2018-10-12T11:43:38.357Z,19.60
2018-10-12T11:49:00.353Z,19.70
2018-10-12T11:54:22.950Z,19.40
2018-10-12T11:59:44.912Z,19.30
2018-10-12T12:05:07.115Z,19.10
2018-10-12T12:10:29.126Z,18.90
2018-10-12T12:15:51.278Z,18.90
2018-10-12T12:21:13.201Z,18.80
2018-10-12T12:26:35.455Z,19.30
2018-10-12T12:31:57.389Z,19.40
2018-10-12T12:37:19.818Z,19.40
2018-10-12T12:42:41.754Z,19.60
2018-10-12T12:48:04.519Z,19.10
2018-10-12T12:53:26.599Z,18.80
2018-10-12T12:58:48.783Z,18.80
2018-10-12T13:04:10.918Z,18.70
2018-10-12T13:09:32.792Z,18.70
2018-10-12T13:14:54.927Z,18.70
2018-10-12T13:20:16.774Z,18.70
2018-10-12T13:25:40.534Z,18.80
2018-10-12T13:31:02.962Z,18.80
2018-10-12T13:36:24.798Z,18.70
2018-10-12T13:41:46.987Z,18.70
2018-10-12T13:47:08.972Z,19.00
2018-10-12T13:52:31.185Z,18.80
2018-10-12T13:57:53.153Z,18.60
2018-10-12T14:03:15.467Z,18.60
2018-10-12T14:08:37.338Z,18.50
2018-10-12T14:13:59.554Z,18.50
2018-10-12T14:19:22.099Z,18.70
2018-10-12T14:24:43.995Z,18.70
2018-10-12T14:30:05.851Z,18.70
2018-10-12T14:35:27.970Z,18.80
2018-10-12T14:40:49.726Z,18.80
2018-10-12T14:46:11.879Z,18.80
2018-10-12T14:51:33.759Z,18.80
2018-10-12T14:56:55.954Z,18.70
2018-10-12T15:02:18.285Z,18.80
2018-10-12T15:07:40.635Z,18.90
2018-10-12T15:13:02.789Z,18.90
2018-10-12T15:18:24.713Z,18.80
2018-10-12T15:23:46.902Z,18.90
2018-10-12T15:29:08.677Z,19.00
2018-10-12T15:34:30.998Z,19.00
2018-10-12T15:39:52.962Z,19.00
2018-10-12T15:45:15.094Z,19.00
2018-10-12T15:50:36.918Z,18.90
2018-10-12T15:55:59.104Z,18.80
2018-10-12T16:01:20.990Z,18.60
2018-10-12T16:06:43.571Z,18.50
2018-10-12T16:12:06.733Z,18.40
2018-10-12T16:17:28.922Z,18.40
2018-10-12T16:22:50.782Z,18.40
2018-10-12T16:28:12.904Z,18.30
2018-10-12T16:33:34.769Z,18.30
2018-10-12T16:38:56.898Z,18.30
2018-10-12T16:44:18.866Z,18.30
2018-10-12T16:49:41.052Z,18.30
2018-10-12T16:55:02.958Z,18.30
2018-10-12T17:00:25.172Z,18.30
2018-10-12T17:05:47.041Z,18.50
2018-10-12T17:11:09.226Z,18.40
2018-10-12T17:16:31.263Z,18.30
2018-10-12T17:21:53.090Z,18.40
2018-10-12T17:27:15.168Z,18.40
2018-10-12T17:32:37.590Z,18.50
2018-10-12T17:37:59.674Z,18.50
2018-10-12T17:43:21.362Z,18.50
2018-10-12T17:48:43.486Z,18.50
2018-10-12T17:54:05.273Z,18.40
2018-10-12T17:59:27.586Z,18.30
2018-10-12T18:04:49.815Z,18.30
2018-10-12T18:10:12.796Z,18.30
2018-10-12T18:15:34.783Z,18.30
2018-10-12T18:20:58.223Z,18.20
2018-10-12T18:26:20.143Z,18.20
2018-10-12T18:31:41.836Z,18.30
2018-10-12T18:37:04.111Z,18.30
2018-10-12T18:42:26.265Z,18.20
2018-10-12T18:47:48.048Z,18.20
2018-10-12T18:53:10.078Z,18.20
2018-10-12T18:58:31.878Z,18.10
2018-10-12T19:03:54.128Z,18.10
2018-10-12T19:09:16.139Z,18.10
2018-10-12T19:14:38.491Z,18.30
2018-10-12T19:20:00.210Z,18.30
2018-10-12T19:25:22.211Z,18.30
2018-10-12T19:30:43.949Z,18.30
2018-10-12T19:36:06.395Z,18.50
2018-10-12T19:41:28.142Z,18.50
2018-10-12T19:46:50.390Z,18.50
2018-10-12T19:52:13.020Z,18.50
2018-10-12T19:57:34.923Z,18.50
2018-10-12T20:02:57.703Z,18.40
2018-10-12T20:08:19.321Z,18.30
2018-10-12T20:13:41.434Z,18.00
2018-10-12T20:19:04.955Z,18.00
2018-10-12T20:24:27.233Z,18.00
2018-10-12T20:29:49.139Z,17.80
2018-10-12T20:35:11.232Z,17.90
2018-10-12T20:40:33.584Z,17.80
2018-10-12T20:45:56.189Z,17.70
2018-10-12T20:51:18.436Z,17.80
2018-10-12T20:56:40.194Z,17.80
2018-10-12T21:02:02.346Z,17.70
2018-10-12T21:07:24.198Z,17.60
2018-10-12T21:12:46.374Z,17.60
2018-10-12T21:18:08.433Z,17.60
2018-10-12T21:23:30.973Z,17.70
2018-10-12T21:28:52.663Z,17.80
2018-10-12T21:34:14.865Z,18.00
2018-10-12T21:39:36.663Z,18.00
2018-10-12T21:44:58.829Z,17.90
2018-10-12T21:50:20.914Z,17.90
2018-10-12T21:55:43.194Z,17.80
2018-10-12T22:01:05.909Z,17.70
2018-10-12T22:06:27.801Z,17.80
2018-10-12T22:11:49.490Z,17.80
2018-10-12T22:17:11.578Z,17.70
2018-10-12T22:22:33.881Z,17.60
2018-10-12T22:27:55.954Z,17.60
2018-10-12T22:33:18.229Z,17.50
2018-10-12T22:38:39.998Z,17.60
2018-10-12T22:44:02.336Z,17.60
2018-10-12T22:49:24.290Z,17.70
2018-10-12T22:54:46.485Z,17.70
2018-10-12T23:00:08.790Z,17.80
2018-10-12T23:05:30.906Z,17.80
2018-10-12T23:10:52.575Z,18.00
2018-10-12T23:16:14.791Z,18.20
2018-10-12T23:21:36.779Z,18.20
2018-10-12T23:26:58.925Z,18.20
2018-10-12T23:32:20.899Z,18.20
2018-10-12T23:37:43.106Z,18.20
2018-10-12T23:43:04.915Z,18.00
2018-10-12T23:48:26.964Z,17.90
2018-10-12T23:53:49.010Z,17.90
2018-10-12T23:59:11.168Z,17.90
